Terminal Aerodrome Forecast
Issued by NWS Springfield, MO

Home | Current Version | Previous Version | Text Only | Print | Product List | Glossary On
Versions: 1 2 3 4 5 6 7 8 9 10 11 12 13 14 15 16 17 18 19 20 21
254
FTUS43 KSGF 190144 AAA
TAFSGF
TAF AMD
KSGF 190144Z 1902/1924 00000KT P6SM SKC
     FM191000 16005KT P6SM FEW110
     FM191200 15005KT 5SM BR BKN015
     FM191500 15006KT P6SM BKN025
     FM191800 15008KT P6SM BKN040=

USA.gov is the U.S. government's official web portal to all federal, state and local government web resources and services.